Time;durP1;ratioP1;P1;durP2;ratioP2;P2;SDS_P1;SDS_P2;PMS_P1;PMS_P2;Temp;Humidity;BMP_temperature;BMP_pressure;BME280_temperature;BME280_humidity;BME280_pressure;Samples;Min_cycle;Max_cycle;Signal;HPM_P1;HPM_P2
2022/01/06 00:01:35;;;;;;;;;;;3.80;99.90;;;;;;5136783;27;19973;-56
2022/01/06 00:04:00;;;;;;;;;;;3.80;99.90;;;;;;5138696;27;19939;-58
2022/01/06 00:06:26;;;;;;;;;;;4.60;99.90;;;;;;5135515;27;19927;-56
2022/01/06 00:08:55;;;;;;;;;;;3.80;99.90;;;;;;5131681;27;19927;-56
2022/01/06 00:11:20;;;;;;;;;;;3.80;99.90;;;;;;5131171;27;20402;-57
2022/01/06 00:13:53;;;;;;;;;;;3.80;99.90;;;;;;5145923;27;20014;-61
2022/01/06 00:16:43;;;;;;;;;;;3.80;99.90;;;;;;5134862;27;19927;-56
2022/01/06 00:24:20;;;;;;;;;;;3.80;99.90;;;;;;5133848;27;20253;-56
2022/01/06 00:26:48;;;;;;;;;;;4.10;99.90;;;;;;5136255;27;19975;-61
2022/01/06 00:29:14;;;;;;;;;;;3.80;99.90;;;;;;5140560;27;19927;-56
2022/01/06 00:31:40;;;;;;;;;;;3.80;99.90;;;;;;5136331;27;20397;-62
2022/01/06 00:34:10;;;;;;;;;;;3.80;99.90;;;;;;5146338;27;19978;-59
2022/01/06 00:36:38;;;;;;;;;;;3.90;99.90;;;;;;5135927;27;19927;-60
2022/01/06 00:39:04;;;;;;;;;;;3.80;99.90;;;;;;5140528;27;20005;-56
2022/01/06 00:41:33;;;;;;;;;;;3.80;99.90;;;;;;5132130;27;20389;-59
2022/01/06 00:43:58;;;;;;;;;;;3.80;99.90;;;;;;5131063;27;19927;-58
2022/01/06 00:46:24;;;;;;;;;;;3.80;99.90;;;;;;5147360;27;19927;-60
2022/01/06 00:48:50;;;;;;;;;;;3.70;99.90;;;;;;5138015;27;20014;-56
2022/01/06 00:51:15;;;;;;;;;;;3.80;99.90;;;;;;5140066;27;19934;-56
2022/01/06 00:53:41;;;;;;;;;;;3.90;99.90;;;;;;5144486;27;19931;-59
2022/01/06 00:56:06;;;;;;;;;;;3.60;99.90;;;;;;5133466;27;20476;-56
2022/01/06 00:58:32;;;;;;;;;;;3.50;99.90;;;;;;5140565;27;19971;-61
2022/01/06 01:00:58;;;;;;;;;;;3.60;99.90;;;;;;5142419;27;19927;-57
2022/01/06 01:03:24;;;;;;;;;;;3.50;99.90;;;;;;5133647;27;20456;-56
2022/01/06 01:05:51;;;;;;;;;;;3.50;99.90;;;;;;5133142;27;19934;-57
2022/01/06 01:08:17;;;;;;;;;;;3.40;99.90;;;;;;5135796;27;19934;-60
2022/01/06 01:10:43;;;;;;;;;;;3.40;99.90;;;;;;5129888;27;19927;-59
2022/01/06 01:13:11;;;;;;;;;;;3.40;99.90;;;;;;5139496;27;19974;-56
2022/01/06 01:15:45;;;;;;;;;;;3.30;99.90;;;;;;5136645;27;19923;-65
2022/01/06 01:18:13;;;;;;;;;;;3.50;99.90;;;;;;5146744;27;20387;-64
2022/01/06 01:20:38;;;;;;;;;;;3.30;99.90;;;;;;5135095;27;20333;-60
2022/01/06 01:23:04;;;;;;;;;;;3.20;99.90;;;;;;5139483;27;19931;-62
2022/01/06 01:25:29;;;;;;;;;;;3.20;99.90;;;;;;5132467;27;19927;-60
2022/01/06 01:27:56;;;;;;;;;;;3.20;99.90;;;;;;5146534;27;20030;-64
2022/01/06 01:30:29;;;;;;;;;;;3.10;99.90;;;;;;5133525;27;20014;-61
2022/01/06 01:32:56;;;;;;;;;;;3.20;99.90;;;;;;5137483;27;19927;-63
2022/01/06 01:35:22;;;;;;;;;;;3.00;99.90;;;;;;5138035;27;20034;-67
2022/01/06 01:37:47;;;;;;;;;;;2.90;99.90;;;;;;5144900;27;20041;-64
2022/01/06 01:40:13;;;;;;;;;;;2.80;99.90;;;;;;5133574;27;19927;-60
2022/01/06 01:42:40;;;;;;;;;;;2.70;99.90;;;;;;5128023;27;19933;-65
2022/01/06 01:45:06;;;;;;;;;;;2.80;99.90;;;;;;5139121;27;20018;-63
2022/01/06 01:47:39;;;;;;;;;;;2.80;99.90;;;;;;5136089;27;19928;-59
2022/01/06 01:50:12;;;;;;;;;;;2.80;99.90;;;;;;5146477;27;19927;-65
2022/01/06 01:52:43;;;;;;;;;;;2.80;99.90;;;;;;5132905;27;20407;-67
2022/01/06 01:55:09;;;;;;;;;;;2.70;99.90;;;;;;5134718;27;20014;-56
2022/01/06 01:57:35;;;;;;;;;;;2.70;99.90;;;;;;5135598;27;20388;-56
2022/01/06 02:00:01;;;;;;;;;;;2.60;99.90;;;;;;5146092;27;19938;-58
2022/01/06 02:02:28;;;;;;;;;;;2.60;99.90;;;;;;5132544;27;20369;-57
2022/01/06 02:04:53;;;;;;;;;;;2.50;99.90;;;;;;5129269;27;20018;-56
2022/01/06 02:07:19;;;;;;;;;;;2.50;99.90;;;;;;5133643;27;20701;-56
2022/01/06 02:09:45;;;;;;;;;;;2.90;99.90;;;;;;5130241;27;19931;-56
2022/01/06 02:12:21;;;;;;;;;;;2.40;99.90;;;;;;5130412;27;20308;-56
2022/01/06 02:14:46;;;;;;;;;;;2.30;99.90;;;;;;5141806;27;19927;-57
2022/01/06 02:17:12;;;;;;;;;;;2.30;99.90;;;;;;5139800;27;20372;-56
2022/01/06 02:19:37;;;;;;;;;;;2.30;99.90;;;;;;5135057;27;20376;-55
2022/01/06 02:22:03;;;;;;;;;;;2.30;99.90;;;;;;5146120;27;19927;-56
2022/01/06 02:24:28;;;;;;;;;;;2.30;99.90;;;;;;5130853;27;19933;-55
2022/01/06 02:26:54;;;;;;;;;;;2.80;99.90;;;;;;5136790;27;19949;-55
2022/01/06 02:29:19;;;;;;;;;;;2.30;99.90;;;;;;5137349;27;19979;-56
2022/01/06 02:31:46;;;;;;;;;;;2.30;99.90;;;;;;5131844;27;19975;-57
2022/01/06 02:34:12;;;;;;;;;;;2.30;99.90;;;;;;5143588;27;20388;-55
2022/01/06 02:36:38;;;;;;;;;;;2.20;99.90;;;;;;5133551;27;19979;-56
2022/01/06 02:39:03;;;;;;;;;;;2.10;99.90;;;;;;5139412;27;19979;-56
2022/01/06 02:41:29;;;;;;;;;;;2.20;99.90;;;;;;5131695;27;20394;-57
2022/01/06 02:43:56;;;;;;;;;;;2.20;99.90;;;;;;5128523;27;19976;-57
2022/01/06 02:46:22;;;;;;;;;;;2.30;99.90;;;;;;5142618;27;19931;-60
2022/01/06 02:48:47;;;;;;;;;;;2.20;99.90;;;;;;5140177;27;19935;-57
2022/01/06 02:51:13;;;;;;;;;;;2.20;99.90;;;;;;5139416;27;19927;-58
2022/01/06 02:53:38;;;;;;;;;;;2.20;99.90;;;;;;5134560;27;20483;-57
2022/01/06 02:56:04;;;;;;;;;;;2.10;99.90;;;;;;5145041;27;20022;-58
2022/01/06 02:58:29;;;;;;;;;;;2.10;99.90;;;;;;5132889;27;19927;-57
2022/01/06 03:00:55;;;;;;;;;;;2.30;99.90;;;;;;5140975;27;19936;-55
2022/01/06 03:03:21;;;;;;;;;;;2.10;99.90;;;;;;5135104;27;19938;-56
2022/01/06 03:05:46;;;;;;;;;;;2.30;99.90;;;;;;5133024;27;20321;-56
2022/01/06 03:08:12;;;;;;;;;;;2.20;99.90;;;;;;5133799;27;19927;-56
2022/01/06 03:10:42;;;;;;;;;;;3.70;99.90;;;;;;5128553;27;19962;-58
2022/01/06 03:13:07;;;;;;;;;;;2.40;99.90;;;;;;5136256;27;19931;-58
2022/01/06 03:15:33;;;;;;;;;;;2.40;99.90;;;;;;5134852;27;19971;-60
2022/01/06 03:17:59;;;;;;;;;;;2.30;99.90;;;;;;5145195;27;19927;-58
2022/01/06 03:20:26;;;;;;;;;;;2.30;99.90;;;;;;5131702;27;19923;-56
2022/01/06 03:22:52;;;;;;;;;;;2.20;99.90;;;;;;5141320;27;19931;-56
2022/01/06 03:25:17;;;;;;;;;;;2.10;99.90;;;;;;5130374;27;19931;-57
2022/01/06 03:27:44;;;;;;;;;;;2.00;99.90;;;;;;5143157;27;19927;-56
2022/01/06 03:30:11;;;;;;;;;;;2.00;99.90;;;;;;5131989;27;19995;-57
2022/01/06 03:32:37;;;;;;;;;;;1.90;99.90;;;;;;5136648;27;19927;-57
2022/01/06 03:35:03;;;;;;;;;;;2.50;99.90;;;;;;5138561;27;19928;-58
2022/01/06 03:37:29;;;;;;;;;;;1.70;99.90;;;;;;5140738;27;19926;-57
2022/01/06 03:39:54;;;;;;;;;;;1.80;99.90;;;;;;5134635;27;20532;-58
2022/01/06 03:42:20;;;;;;;;;;;1.70;99.90;;;;;;5128712;27;19928;-56
2022/01/06 03:44:45;;;;;;;;;;;1.70;99.90;;;;;;5137579;27;20447;-59
2022/01/06 03:47:11;;;;;;;;;;;1.30;99.90;;;;;;5140087;27;19931;-57
2022/01/06 03:49:37;;;;;;;;;;;1.80;99.90;;;;;;5145877;27;19950;-58
2022/01/06 03:52:02;;;;;;;;;;;1.60;99.90;;;;;;5134076;27;19981;-60
2022/01/06 03:54:28;;;;;;;;;;;1.60;99.90;;;;;;5136767;27;19927;-56
2022/01/06 03:56:54;;;;;;;;;;;1.70;99.90;;;;;;5143672;27;20377;-56
2022/01/06 03:59:19;;;;;;;;;;;1.90;99.90;;;;;;5143417;27;19934;-57
2022/01/06 04:01:45;;;;;;;;;;;1.40;99.90;;;;;;5135077;27;19927;-56
2022/01/06 04:04:11;;;;;;;;;;;1.30;99.90;;;;;;5140124;27;19931;-57
2022/01/06 04:06:37;;;;;;;;;;;1.30;99.90;;;;;;5136266;27;19930;-57
2022/01/06 04:09:03;;;;;;;;;;;1.40;99.90;;;;;;5132107;27;19930;-56
2022/01/06 04:11:29;;;;;;;;;;;1.30;99.90;;;;;;5131437;27;19941;-56
2022/01/06 04:13:54;;;;;;;;;;;1.20;99.90;;;;;;5147180;27;20422;-56
2022/01/06 04:16:20;;;;;;;;;;;1.40;99.90;;;;;;5134661;27;19927;-56
2022/01/06 04:18:45;;;;;;;;;;;1.10;99.90;;;;;;5144810;27;19927;-56
2022/01/06 04:21:11;;;;;;;;;;;1.10;99.90;;;;;;5141653;27;20025;-57
2022/01/06 04:23:37;;;;;;;;;;;1.60;99.90;;;;;;5136260;27;19927;-57
2022/01/06 04:26:03;;;;;;;;;;;1.00;99.90;;;;;;5134151;27;20361;-56
2022/01/06 04:28:28;;;;;;;;;;;1.00;99.90;;;;;;5147431;27;19927;-57
2022/01/06 04:30:54;;;;;;;;;;;1.00;99.90;;;;;;5136698;27;20009;-56
2022/01/06 04:33:19;;;;;;;;;;;1.00;99.90;;;;;;5142108;27;19927;-56
2022/01/06 04:35:45;;;;;;;;;;;0.90;99.90;;;;;;5134971;27;20442;-56
2022/01/06 04:38:11;;;;;;;;;;;0.90;99.90;;;;;;5145822;27;19938;-57
2022/01/06 04:40:36;;;;;;;;;;;0.90;99.90;;;;;;5133540;27;20443;-56
2022/01/06 04:43:02;;;;;;;;;;;0.90;99.90;;;;;;5130334;27;20377;-62
2022/01/06 04:45:27;;;;;;;;;;;0.80;99.90;;;;;;5142203;27;19969;-58
2022/01/06 04:47:53;;;;;;;;;;;0.80;99.90;;;;;;5134069;27;19934;-57
2022/01/06 04:50:19;;;;;;;;;;;0.60;99.90;;;;;;5147466;27;19977;-64
2022/01/06 04:52:45;;;;;;;;;;;0.60;99.90;;;;;;5135685;27;19927;-58
2022/01/06 04:55:11;;;;;;;;;;;0.60;99.90;;;;;;5139198;27;20232;-60
2022/01/06 04:57:36;;;;;;;;;;;0.60;99.90;;;;;;5136719;27;19934;-64
2022/01/06 05:00:03;;;;;;;;;;;0.80;99.90;;;;;;5146484;27;20303;-59
2022/01/06 05:02:29;;;;;;;;;;;0.60;99.90;;;;;;5132454;27;20367;-57
2022/01/06 05:04:54;;;;;;;;;;;0.60;99.90;;;;;;5132256;27;19923;-56
2022/01/06 05:07:20;;;;;;;;;;;0.60;99.90;;;;;;5137611;27;19931;-57
2022/01/06 05:09:45;;;;;;;;;;;0.70;99.90;;;;;;5135313;27;19978;-59
2022/01/06 05:12:11;;;;;;;;;;;0.50;99.90;;;;;;5130797;27;19938;-58
2022/01/06 05:14:36;;;;;;;;;;;0.50;99.90;;;;;;5144370;27;19927;-56
2022/01/06 05:17:02;;;;;;;;;;;0.40;99.90;;;;;;5139249;27;19972;-58
2022/01/06 05:19:28;;;;;;;;;;;0.40;99.90;;;;;;5137763;27;19927;-57
2022/01/06 05:21:54;;;;;;;;;;;1.00;99.90;;;;;;5145324;27;19927;-59
2022/01/06 05:24:20;;;;;;;;;;;0.40;99.90;;;;;;5132577;27;19927;-58
2022/01/06 05:26:45;;;;;;;;;;;0.40;99.90;;;;;;5137018;27;19927;-58
2022/01/06 05:29:12;;;;;;;;;;;0.40;99.90;;;;;;5138877;27;20312;-56
2022/01/06 05:31:38;;;;;;;;;;;1.20;99.90;;;;;;5135620;27;19927;-57
2022/01/06 05:34:04;;;;;;;;;;;0.80;99.90;;;;;;5143944;27;19979;-57
2022/01/06 05:36:29;;;;;;;;;;;0.20;99.90;;;;;;5132748;27;20369;-56
2022/01/06 05:38:55;;;;;;;;;;;0.30;99.90;;;;;;5141991;27;19928;-56
2022/01/06 05:41:21;;;;;;;;;;;0.30;99.90;;;;;;5132576;27;20389;-56
2022/01/06 05:43:47;;;;;;;;;;;0.30;99.90;;;;;;5129646;27;19970;-57
2022/01/06 05:46:13;;;;;;;;;;;0.20;99.90;;;;;;5146346;27;19972;-56
2022/01/06 05:48:39;;;;;;;;;;;0.20;99.90;;;;;;5134987;27;19927;-56
2022/01/06 05:51:05;;;;;;;;;;;0.20;99.90;;;;;;5140435;27;19934;-56
2022/01/06 05:53:30;;;;;;;;;;;0.20;99.90;;;;;;5141529;27;19939;-56
2022/01/06 05:55:56;;;;;;;;;;;0.10;99.90;;;;;;5132948;27;19995;-56
2022/01/06 05:58:21;;;;;;;;;;;0.20;99.90;;;;;;5138179;27;19927;-56
2022/01/06 06:00:48;;;;;;;;;;;0.20;99.90;;;;;;5142661;27;20013;-58
2022/01/06 06:03:14;;;;;;;;;;;0.30;99.90;;;;;;5132846;27;19934;-56
2022/01/06 06:05:41;;;;;;;;;;;0.00;99.90;;;;;;5134849;27;19927;-56
2022/01/06 06:08:07;;;;;;;;;;;0.00;99.90;;;;;;5134291;27;20354;-56
2022/01/06 06:10:33;;;;;;;;;;;0.40;99.90;;;;;;5127488;27;20356;-56
2022/01/06 06:12:58;;;;;;;;;;;0.10;99.90;;;;;;5137906;27;20017;-56
2022/01/06 06:15:24;;;;;;;;;;;0.10;99.90;;;;;;5135990;27;20442;-56
2022/01/06 06:17:50;;;;;;;;;;;0.00;99.90;;;;;;5144458;27;20050;-56
2022/01/06 06:20:15;;;;;;;;;;;0.00;99.90;;;;;;5132374;27;19927;-56
2022/01/06 06:22:41;;;;;;;;;;;-0.10;99.90;;;;;;5143351;27;19938;-57
2022/01/06 06:25:07;;;;;;;;;;;-0.10;99.90;;;;;;5131435;27;19974;-56
2022/01/06 06:27:32;;;;;;;;;;;-0.10;99.90;;;;;;5142166;27;20289;-56
2022/01/06 06:29:58;;;;;;;;;;;-0.10;99.90;;;;;;5130254;27;20017;-57
2022/01/06 06:32:25;;;;;;;;;;;0.10;99.90;;;;;;5137793;27;20352;-57
2022/01/06 06:34:52;;;;;;;;;;;-0.20;99.90;;;;;;5140942;27;19934;-56
2022/01/06 06:37:18;;;;;;;;;;;0.40;99.90;;;;;;5140059;27;20299;-56
2022/01/06 06:39:44;;;;;;;;;;;-0.20;99.90;;;;;;5135219;27;20018;-56
2022/01/06 06:42:09;;;;;;;;;;;-0.20;99.90;;;;;;5129732;27;19927;-59
2022/01/06 06:44:35;;;;;;;;;;;-0.10;99.90;;;;;;5134273;27;19977;-57
2022/01/06 06:47:01;;;;;;;;;;;0.00;99.90;;;;;;5133207;27;20018;-56
2022/01/06 06:49:26;;;;;;;;;;;0.10;99.90;;;;;;5138013;27;19927;-57
2022/01/06 06:51:52;;;;;;;;;;;0.10;99.90;;;;;;5132112;27;19931;-55
2022/01/06 06:54:17;;;;;;;;;;;0.20;99.90;;;;;;5144226;27;20100;-56
2022/01/06 06:56:43;;;;;;;;;;;0.30;99.90;;;;;;5134126;27;20025;-56
2022/01/06 06:59:09;;;;;;;;;;;0.30;99.90;;;;;;5138326;27;20413;-56
2022/01/06 07:01:34;;;;;;;;;;;0.30;99.90;;;;;;5134030;27;19931;-59
2022/01/06 07:04:00;;;;;;;;;;;0.30;99.90;;;;;;5134007;27;19950;-66
2022/01/06 07:06:25;;;;;;;;;;;0.20;99.90;;;;;;5132379;27;19934;-64
2022/01/06 07:08:51;;;;;;;;;;;0.20;99.90;;;;;;5128922;27;20289;-64
2022/01/06 07:11:16;;;;;;;;;;;0.20;99.90;;;;;;5128377;28;19934;-61
2022/01/06 07:13:42;;;;;;;;;;;0.20;99.90;;;;;;5141798;27;20293;-65
2022/01/06 07:16:08;;;;;;;;;;;0.20;99.90;;;;;;5129690;27;19969;-64
2022/01/06 07:18:33;;;;;;;;;;;0.60;99.90;;;;;;5127686;27;19931;-61
2022/01/06 07:20:59;;;;;;;;;;;0.20;99.90;;;;;;5130187;27;19927;-60
2022/01/06 07:23:24;;;;;;;;;;;0.20;99.90;;;;;;5136126;27;19938;-58
2022/01/06 07:25:50;;;;;;;;;;;0.20;99.90;;;;;;5147032;27;19927;-59
2022/01/06 07:28:15;;;;;;;;;;;0.20;99.90;;;;;;5150541;27;19927;-59
2022/01/06 07:30:41;;;;;;;;;;;1.80;99.90;;;;;;5135018;27;19945;-59
2022/01/06 07:33:07;;;;;;;;;;;0.20;99.90;;;;;;5130098;27;19923;-58
2022/01/06 07:35:33;;;;;;;;;;;1.00;99.90;;;;;;5133523;27;19950;-59
2022/01/06 07:37:58;;;;;;;;;;;0.10;99.90;;;;;;5146197;27;19927;-58
2022/01/06 07:40:24;;;;;;;;;;;0.20;99.90;;;;;;5134161;27;19927;-59
2022/01/06 07:42:50;;;;;;;;;;;0.10;99.90;;;;;;5138549;27;20608;-59
2022/01/06 07:45:16;;;;;;;;;;;0.70;99.90;;;;;;5138133;27;20296;-59
2022/01/06 07:48:00;;;;;;;;;;;0.10;99.90;;;;;;5145923;27;19927;-61
2022/01/06 07:50:27;;;;;;;;;;;0.10;99.90;;;;;;5133923;27;19979;-60
2022/01/06 07:52:53;;;;;;;;;;;0.10;99.90;;;;;;5148425;27;19927;-62
2022/01/06 07:55:19;;;;;;;;;;;0.10;99.90;;;;;;5139219;27;19934;-61
2022/01/06 07:57:45;;;;;;;;;;;0.00;99.90;;;;;;5131946;27;19986;-62
2022/01/06 08:00:10;;;;;;;;;;;0.10;99.90;;;;;;5136784;27;19927;-60
2022/01/06 08:02:36;;;;;;;;;;;0.00;99.90;;;;;;5130677;27;20396;-62
2022/01/06 08:05:03;;;;;;;;;;;0.00;99.90;;;;;;5142738;27;19963;-59
2022/01/06 08:07:28;;;;;;;;;;;0.00;99.90;;;;;;5134106;27;20403;-59
2022/01/06 08:09:54;;;;;;;;;;;0.00;99.90;;;;;;5131513;27;19935;-58
2022/01/06 08:12:20;;;;;;;;;;;0.00;99.90;;;;;;5133924;27;19962;-58
2022/01/06 08:14:45;;;;;;;;;;;0.10;99.90;;;;;;5131012;27;19966;-58
2022/01/06 08:17:11;;;;;;;;;;;0.10;99.90;;;;;;5135073;27;19975;-58
2022/01/06 08:19:37;;;;;;;;;;;0.90;99.90;;;;;;5143149;27;19927;-58
2022/01/06 08:22:02;;;;;;;;;;;0.10;99.90;;;;;;5134199;27;19931;-58
2022/01/06 08:24:28;;;;;;;;;;;0.10;99.90;;;;;;5147323;27;19935;-58
2022/01/06 08:26:55;;;;;;;;;;;0.10;99.90;;;;;;5142931;27;19931;-59
2022/01/06 08:29:21;;;;;;;;;;;0.10;99.90;;;;;;5126789;27;20483;-58
2022/01/06 08:31:46;;;;;;;;;;;0.20;99.90;;;;;;5131048;27;19928;-59
2022/01/06 08:34:12;;;;;;;;;;;0.20;99.90;;;;;;5138857;27;19927;-58
2022/01/06 08:36:37;;;;;;;;;;;0.20;99.90;;;;;;5134814;27;19927;-59
2022/01/06 08:39:03;;;;;;;;;;;0.30;99.90;;;;;;5142017;27;19928;-60
2022/01/06 08:41:29;;;;;;;;;;;0.30;99.90;;;;;;5132530;27;19927;-60
2022/01/06 08:43:54;;;;;;;;;;;0.40;99.90;;;;;;5136296;27;19973;-61
2022/01/06 08:46:20;;;;;;;;;;;0.50;99.90;;;;;;5133951;27;20342;-61
2022/01/06 08:48:45;;;;;;;;;;;0.70;99.90;;;;;;5141744;27;19934;-58
2022/01/06 08:51:11;;;;;;;;;;;0.90;99.90;;;;;;5137790;27;20023;-60
2022/01/06 08:53:37;;;;;;;;;;;1.10;99.90;;;;;;5144452;27;19927;-59
2022/01/06 08:56:02;;;;;;;;;;;1.30;99.90;;;;;;5139819;27;20193;-58
2022/01/06 08:58:28;;;;;;;;;;;1.50;99.90;;;;;;5134480;27;20367;-62
2022/01/06 09:00:53;;;;;;;;;;;1.60;99.90;;;;;;5140135;27;19928;-64
2022/01/06 09:03:19;;;;;;;;;;;1.70;99.90;;;;;;5134470;27;20000;-63
2022/01/06 09:05:45;;;;;;;;;;;1.80;99.90;;;;;;5128781;27;19931;-62
2022/01/06 09:08:10;;;;;;;;;;;2.20;99.90;;;;;;5138682;27;19967;-62
2022/01/06 09:10:36;;;;;;;;;;;2.00;99.90;;;;;;5143512;27;20822;-65
2022/01/06 09:13:02;;;;;;;;;;;2.50;99.90;;;;;;5131249;27;19932;-62
2022/01/06 09:15:28;;;;;;;;;;;2.20;99.90;;;;;;5130760;27;20300;-60
2022/01/06 09:17:53;;;;;;;;;;;2.20;99.90;;;;;;5129232;27;19927;-67
2022/01/06 09:20:19;;;;;;;;;;;2.20;99.90;;;;;;5143483;27;19923;-67
2022/01/06 09:22:44;;;;;;;;;;;2.10;99.90;;;;;;5142440;27;19927;-63
2022/01/06 09:25:11;;;;;;;;;;;2.40;99.90;;;;;;5139091;27;19933;-58
2022/01/06 09:27:37;;;;;;;;;;;2.40;99.90;;;;;;5142130;27;20006;-59
2022/01/06 09:30:03;;;;;;;;;;;2.40;99.90;;;;;;5141561;27;20013;-59
2022/01/06 09:32:29;;;;;;;;;;;2.50;99.90;;;;;;5139885;27;20740;-58
2022/01/06 09:34:55;;;;;;;;;;;2.50;99.90;;;;;;5147220;27;19985;-59
2022/01/06 09:37:20;;;;;;;;;;;2.50;99.90;;;;;;5128759;27;19954;-62
2022/01/06 09:39:47;;;;;;;;;;;2.50;99.90;;;;;;5131432;27;19965;-59
2022/01/06 09:42:13;;;;;;;;;;;2.50;99.90;;;;;;5136191;27;20392;-60
2022/01/06 09:44:39;;;;;;;;;;;2.60;99.90;;;;;;5133909;27;19927;-58
2022/01/06 09:47:06;;;;;;;;;;;2.60;99.90;;;;;;5142434;27;19930;-58
2022/01/06 09:49:35;;;;;;;;;;;2.60;99.90;;;;;;5142021;27;19966;-58
2022/01/06 09:52:00;;;;;;;;;;;3.00;99.90;;;;;;5132372;27;20382;-59
2022/01/06 09:54:26;;;;;;;;;;;2.80;99.90;;;;;;5134253;27;19972;-59
2022/01/06 09:56:51;;;;;;;;;;;2.70;99.90;;;;;;5136059;27;19978;-61
2022/01/06 09:59:17;;;;;;;;;;;3.30;99.90;;;;;;5129472;27;19979;-63
2022/01/06 10:01:43;;;;;;;;;;;2.80;99.90;;;;;;5143276;27;19974;-64
2022/01/06 10:04:29;;;;;;;;;;;2.90;99.90;;;;;;5132598;27;20516;-62
2022/01/06 10:07:05;;;;;;;;;;;2.90;99.90;;;;;;5144323;27;19942;-66
2022/01/06 10:09:33;;;;;;;;;;;3.00;99.90;;;;;;5134638;27;19934;-63
2022/01/06 10:11:59;;;;;;;;;;;3.10;99.90;;;;;;5145238;27;19927;-69
2022/01/06 10:14:32;;;;;;;;;;;3.20;99.90;;;;;;5131122;27;19946;-62
2022/01/06 10:16:58;;;;;;;;;;;3.30;99.90;;;;;;5141024;27;19927;-65
2022/01/06 10:19:24;;;;;;;;;;;3.40;99.90;;;;;;5138598;27;19945;-67
2022/01/06 10:21:56;;;;;;;;;;;3.50;99.90;;;;;;5133531;27;20076;-63
2022/01/06 10:24:23;;;;;;;;;;;3.50;99.90;;;;;;5145801;27;20311;-67
2022/01/06 10:27:06;;;;;;;;;;;3.60;99.90;;;;;;5134737;27;19934;-70
2022/01/06 10:29:33;;;;;;;;;;;3.80;99.90;;;;;;5135035;27;20390;-65
2022/01/06 10:32:01;;;;;;;;;;;3.90;99.90;;;;;;5134234;27;19970;-66
2022/01/06 10:34:31;;;;;;;;;;;4.00;99.90;;;;;;5143760;27;19928;-65
2022/01/06 10:36:57;;;;;;;;;;;4.20;99.90;;;;;;5138805;27;19962;-67
2022/01/06 10:39:22;;;;;;;;;;;4.40;99.90;;;;;;5140850;27;19969;-70
2022/01/06 10:41:48;;;;;;;;;;;4.60;99.90;;;;;;5129848;27;20031;-68
2022/01/06 10:44:13;;;;;;;;;;;4.80;99.90;;;;;;5143741;27;19923;-67
2022/01/06 10:46:41;;;;;;;;;;;5.20;99.90;;;;;;5137012;27;19976;-69
2022/01/06 10:49:08;;;;;;;;;;;5.20;99.90;;;;;;5138545;27;19950;-71
2022/01/06 10:51:39;;;;;;;;;;;5.30;99.90;;;;;;5134093;27;20464;-68
2022/01/06 10:54:05;;;;;;;;;;;5.40;99.90;;;;;;5136350;27;19927;-70
2022/01/06 10:56:31;;;;;;;;;;;5.50;99.90;;;;;;5135529;27;19934;-59
2022/01/06 10:58:58;;;;;;;;;;;6.00;99.90;;;;;;5138195;27;20509;-59
2022/01/06 11:01:23;;;;;;;;;;;5.60;99.90;;;;;;5142035;27;19927;-57
2022/01/06 11:03:49;;;;;;;;;;;5.60;99.90;;;;;;5143506;27;20038;-59
2022/01/06 11:06:14;;;;;;;;;;;5.70;99.90;;;;;;5134953;27;19927;-57
2022/01/06 11:08:42;;;;;;;;;;;5.80;99.90;;;;;;5130748;27;19966;-59
2022/01/06 11:13:34;;;;;;;;;;;5.80;99.90;;;;;;5135111;27;20018;-58
2022/01/06 11:16:00;;;;;;;;;;;5.70;99.90;;;;;;5131295;27;19927;-59
2022/01/06 11:18:26;;;;;;;;;;;6.00;99.90;;;;;;5144878;27;19927;-60
2022/01/06 11:21:00;;;;;;;;;;;5.90;99.90;;;;;;5125899;27;20034;-60
2022/01/06 11:23:26;;;;;;;;;;;5.80;99.90;;;;;;5127204;27;19928;-60
2022/01/06 11:26:09;;;;;;;;;;;5.70;99.90;;;;;;5129051;27;19940;-60
2022/01/06 11:28:34;;;;;;;;;;;5.70;99.90;;;;;;5125146;27;19938;-59
2022/01/06 11:31:18;;;;;;;;;;;6.00;99.90;;;;;;5127889;27;19931;-58
2022/01/06 11:33:45;;;;;;;;;;;5.70;99.90;;;;;;5126280;27;19927;-56
2022/01/06 11:36:37;;;;;;;;;;;5.70;99.90;;;;;;5127379;27;19927;-59
2022/01/06 11:39:05;;;;;;;;;;;5.70;99.90;;;;;;5126280;27;19978;-56
2022/01/06 11:41:38;;;;;;;;;;;5.60;99.90;;;;;;5135376;27;20263;-57
2022/01/06 11:44:24;;;;;;;;;;;5.70;99.90;;;;;;5126019;27;20562;-56
2022/01/06 11:46:52;;;;;;;;;;;5.70;99.90;;;;;;5127516;27;20400;-56
2022/01/06 11:49:29;;;;;;;;;;;5.70;99.90;;;;;;5133882;27;19935;-57
2022/01/06 11:52:03;;;;;;;;;;;5.70;99.90;;;;;;5128330;27;20405;-57
2022/01/06 11:54:30;;;;;;;;;;;6.20;99.90;;;;;;5129335;27;20444;-57
2022/01/06 11:56:56;;;;;;;;;;;5.70;99.90;;;;;;5125812;27;19938;-56
2022/01/06 11:59:29;;;;;;;;;;;6.40;99.90;;;;;;5127912;27;19952;-56
2022/01/06 12:01:55;;;;;;;;;;;5.70;99.90;;;;;;5128707;27;19969;-57
2022/01/06 12:04:21;;;;;;;;;;;5.80;99.90;;;;;;5130065;27;20018;-56
2022/01/06 12:06:47;;;;;;;;;;;5.90;99.90;;;;;;5129809;27;19927;-57
2022/01/06 12:09:20;;;;;;;;;;;5.90;99.90;;;;;;5128867;27;19927;-56
2022/01/06 12:11:46;;;;;;;;;;;5.90;99.90;;;;;;5125457;27;19927;-57
2022/01/06 12:14:22;;;;;;;;;;;5.90;99.90;;;;;;5127728;27;20296;-56
2022/01/06 12:16:47;;;;;;;;;;;5.90;99.90;;;;;;5129355;27;19928;-57
2022/01/06 12:19:15;;;;;;;;;;;5.90;99.90;;;;;;5123544;27;19931;-56
2022/01/06 12:21:41;;;;;;;;;;;6.00;99.90;;;;;;5133104;27;19935;-56
2022/01/06 12:24:07;;;;;;;;;;;6.00;99.90;;;;;;5141511;27;19927;-57
2022/01/06 12:26:33;;;;;;;;;;;6.00;99.90;;;;;;5144277;27;19927;-56
2022/01/06 12:28:59;;;;;;;;;;;6.10;99.90;;;;;;5137558;27;19933;-57
2022/01/06 12:31:26;;;;;;;;;;;6.80;99.90;;;;;;5137031;27;20295;-56
2022/01/06 12:33:58;;;;;;;;;;;6.10;99.90;;;;;;5141943;27;19976;-56
2022/01/06 12:36:24;;;;;;;;;;;6.10;99.90;;;;;;5129574;27;19928;-56
2022/01/06 12:38:50;;;;;;;;;;;6.20;99.90;;;;;;5123916;27;19928;-57
2022/01/06 12:41:23;;;;;;;;;;;6.20;99.90;;;;;;5131575;27;19931;-57
2022/01/06 12:43:49;;;;;;;;;;;6.20;99.90;;;;;;5127737;27;19938;-59
2022/01/06 12:46:16;;;;;;;;;;;6.20;99.90;;;;;;5140862;27;19927;-56
2022/01/06 12:48:44;;;;;;;;;;;6.30;99.90;;;;;;5132324;27;20023;-57
2022/01/06 12:51:11;;;;;;;;;;;6.30;99.90;;;;;;5140626;27;19927;-57
2022/01/06 12:53:42;;;;;;;;;;;6.40;99.90;;;;;;5136643;27;20143;-60
2022/01/06 12:56:08;;;;;;;;;;;6.40;99.90;;;;;;5144250;27;20030;-59
2022/01/06 12:58:34;;;;;;;;;;;6.40;99.90;;;;;;5129764;27;20309;-57
2022/01/06 13:01:04;;;;;;;;;;;6.50;99.90;;;;;;5130418;27;19934;-56
2022/01/06 13:03:40;;;;;;;;;;;6.50;99.90;;;;;;5130868;27;20392;-65
2022/01/06 13:06:10;;;;;;;;;;;6.50;99.90;;;;;;5144013;27;19969;-62
2022/01/06 13:08:50;;;;;;;;;;;6.50;99.90;;;;;;5128533;27;19928;-62
2022/01/06 13:11:16;;;;;;;;;;;6.60;99.90;;;;;;5142306;27;19972;-60
2022/01/06 13:13:46;;;;;;;;;;;6.60;99.90;;;;;;5132892;27;19932;-57
2022/01/06 13:16:44;;;;;;;;;;;6.60;99.90;;;;;;5142032;27;19956;-57
2022/01/06 13:19:15;;;;;;;;;;;6.70;99.90;;;;;;5084664;27;20288;-58
2022/01/06 13:21:45;;;;;;;;;;;6.70;99.90;;;;;;5143166;27;19927;-58
2022/01/06 13:24:10;;;;;;;;;;;6.70;99.90;;;;;;5130408;27;20455;-56
2022/01/06 13:26:50;;;;;;;;;;;6.70;99.90;;;;;;5132899;27;20543;-58
2022/01/06 13:29:24;;;;;;;;;;;6.70;99.90;;;;;;5130881;27;20050;-57
2022/01/06 13:32:00;;;;;;;;;;;6.80;99.90;;;;;;5131435;27;21615;-57
2022/01/06 13:34:26;;;;;;;;;;;6.80;99.90;;;;;;5134130;27;19927;-57
2022/01/06 13:37:07;;;;;;;;;;;6.80;99.90;;;;;;5137922;27;19971;-57
2022/01/06 13:39:34;;;;;;;;;;;6.80;99.90;;;;;;5138783;27;20041;-55
2022/01/06 13:41:59;;;;;;;;;;;6.80;99.90;;;;;;5128839;27;20294;-60
2022/01/06 13:44:25;;;;;;;;;;;6.70;99.90;;;;;;5132835;27;19976;-61
2022/01/06 13:47:06;;;;;;;;;;;6.90;99.90;;;;;;5134229;27;19927;-59
2022/01/06 13:52:21;;;;;;;;;;;6.50;99.90;;;;;;5141267;27;19931;-58
2022/01/06 13:54:50;;;;;;;;;;;7.10;99.90;;;;;;5138079;27;19927;-56
2022/01/06 13:57:15;;;;;;;;;;;6.50;99.90;;;;;;5132597;27;19949;-69
2022/01/06 13:59:42;;;;;;;;;;;6.40;99.90;;;;;;5138982;27;20368;-66
2022/01/06 14:02:08;;;;;;;;;;;6.40;99.90;;;;;;5130753;27;20733;-55
2022/01/06 14:04:35;;;;;;;;;;;6.40;99.90;;;;;;5137385;27;20081;-56
2022/01/06 14:07:01;;;;;;;;;;;6.30;99.90;;;;;;5138656;27;19927;-57
2022/01/06 14:09:29;;;;;;;;;;;6.30;99.90;;;;;;5139684;27;19927;-56
2022/01/06 14:11:55;;;;;;;;;;;6.30;99.90;;;;;;5139950;27;19927;-56
2022/01/06 14:14:20;;;;;;;;;;;6.30;99.90;;;;;;5140992;27;20110;-59
2022/01/06 14:16:46;;;;;;;;;;;6.20;99.90;;;;;;5138319;27;19941;-59
2022/01/06 14:19:11;;;;;;;;;;;6.10;99.90;;;;;;5141356;27;19934;-62
2022/01/06 14:21:37;;;;;;;;;;;6.00;99.90;;;;;;5140268;27;19970;-63
2022/01/06 14:24:03;;;;;;;;;;;6.00;99.90;;;;;;5141603;27;19928;-58
2022/01/06 14:26:28;;;;;;;;;;;6.00;99.90;;;;;;5139582;27;19927;-64
2022/01/06 14:28:54;;;;;;;;;;;5.90;99.90;;;;;;5128548;27;20505;-59
2022/01/06 14:31:19;;;;;;;;;;;6.50;99.90;;;;;;5123378;27;19928;-56
2022/01/06 14:33:45;;;;;;;;;;;5.80;99.90;;;;;;5125965;27;19928;-61
2022/01/06 14:36:12;;;;;;;;;;;5.70;99.90;;;;;;5125539;27;20482;-58
2022/01/06 14:38:40;;;;;;;;;;;5.60;99.90;;;;;;5130121;27;20408;-59